Accueil
METAR-TAF:

METAR-TAF

Aéroports :

Malekula, Vanuatu

latitude: 16-27-26S, longitude: 167-49-42E, altitude: 2 m

Observation

Le bulletin a été fait il y a 3 heures et 17 minutes, à 18:00 UTC
Vent 5 kt de ouest/sud-ouest
Température 25°C
Humidité 89%
Pression 1006 hPa

METAR: NVSL 201800Z AUTO 25005KT //// // NCD 25/23 Q1006 RMK NIL

Heure: 08:17 (21:17 UTC)

Prévision

Le bulletin a été fait il y a 5 heures et 17 minutes, à 16:00 UTC
Prévision valable du 20 à 18 UTC au 21 à 18 UTC
Vent 10 kt de est/sud-est
Visibilité: 8000 m
Nuages fragmentés à une hauteur de 2000 ft
Nuages fragmentés à une hauteur de 11000 ft
Quelques nuages à une hauteur de 1000 ft
Nuages fragmentés à une hauteur de 1800 ft
averses de pluie

TAF: NVSL 201600Z 2018/2118 12010KT 9999 BKN020 BKN110 INTER 2018/2024 8000 SHRA FEW010 BKN018

Observations et prévisions météorologiques de plus de 4000 aéroports (messages METAR et TAF).

Les stations disponibles sont représentées par des disques jaunes et rouges sur la carte.

Passer la souris dessus pour voir le nom de la station.

Cliquer dessus pour voir les observations et prévisions météorologiques.

Pour changer de carte: cliquez sur les boutons verts avec une croix noire pour zoomer, sur le bouton vert avec un tiret pour effectuer un zoom arrière, ou sur les flèches vertes pour les cartes adjacentes.


METAR-TAF: